Flight Track Log - Related Links

Times and Time Zones

All times are in EDT time to prevent confusion due to time zone crossing. See the N775NC flight status page for this flight to view local times or setup timezone preferences in your user account.

Time Position Orientation Groundspeed Altitude Reporting Facility
EDT Latitude Longitude Course Direction KTS MPH feet Rate Location/Type
Thu 12:22:58 PM 33.6333 -84.4667 81° East 122 140 2,200  Level Atlanta TRACON
Thu 12:23:58 PM 33.6000 -84.5500 244° Southwest 255 293 4,700 2,604 Climbing Atlanta TRACON
Thu 12:24:44 PM 33.5717 -84.6022 237° Southwest 323 372 6,800 2,321 Climbing Atlanta Center
Thu 12:25:00 PM 33.5743 -84.0148 90° East  Level Estimated
Thu 12:25:44 PM 33.5131 -84.6317 203° Southwest 274 315 8,800  Level Atlanta Center
Thu 12:26:00 PM 33.5532 -83.8773 88° East  Level Estimated
Thu 12:26:44 PM 33.4739 -84.5319 115° Southeast 235 270 9,800  Level Atlanta Center
Thu 12:27:00 PM 33.5707 -83.7390 81° East  Level FlightAware Approximate
Thu 12:27:44 PM 33.4681 -84.4222 94° East 287 330 11,600  Level Atlanta Center
Thu 12:28:00 PM 33.5881 -83.6007 81° East  Level FlightAware Approximate
Thu 12:28:44 PM 33.4789 -84.2953 84° East 343 395 12,500  Level Atlanta Center
Thu 12:29:44 PM 33.4958 -84.1658 81° East 386 444 13,800 1,750 Climbing Atlanta Center
Thu 12:30:44 PM 33.5167 -84.0264 80° East 416 479 16,000 1,750 Climbing Atlanta Center
Thu 12:31:44 PM 33.5375 -83.8817 80° East 429 494 17,300 1,350 Climbing Atlanta Center
Thu 12:32:44 PM 33.5600 -83.7347 80° East 437 503 18,700 1,500 Climbing Atlanta Center
Thu 12:33:44 PM 33.5867 -83.5850 78° East 452 520 20,300 1,500 Climbing Atlanta Center
Thu 12:34:44 PM 33.6092 -83.4353 80° East 452 520 21,700 1,200 Climbing Atlanta Center
Thu 12:35:44 PM 33.6311 -83.2778 80° East 463 533 22,700 650 Climbing Atlanta Center
Thu 12:36:44 PM 33.6444 -83.0981 85° East 480 552 23,000 150 Climbing Atlanta Center
Thu 12:37:44 PM 33.6556 -82.9258 86° East 511 588 23,000  Level Atlanta Center
Thu 12:38:44 PM 33.6706 -82.7558 84° East 516 594 23,000  Level Atlanta Center
Thu 12:39:44 PM 33.6875 -82.5833 83° East 521 600 23,000  Level Atlanta Center
Thu 12:41:19 PM 33.7056 -82.3058 85° East 522 601 23,000  Level Jacksonville Center
Thu 12:42:19 PM 33.7047 -82.1486 90° East 522 601 23,000  Level Jacksonville Center
Thu 12:43:19 PM 33.6642 -81.9867 107° East 513 590 23,000  Level Jacksonville Center
Thu 12:44:19 PM 33.6106 -81.8253 112° Southeast 513 590 23,000  Level Jacksonville Center
Thu 12:45:19 PM 33.5508 -81.6664 114° Southeast 513 590 23,000  Level Jacksonville Center
Thu 12:46:19 PM 33.4908 -81.5103 115° Southeast 518 596 23,000  Level Jacksonville Center
Thu 12:47:19 PM 33.4286 -81.3594 116° Southeast 518 596 23,000 -200 Level Jacksonville Center
Thu 12:48:19 PM 33.3642 -81.2139 118° Southeast 504 580 22,600 -1,800 Descending Jacksonville Center
Thu 12:49:19 PM 33.2994 -81.0661 118° Southeast 499 574 19,400 -3,150 Descending Jacksonville Center
Thu 12:50:19 PM 33.2408 -80.9231 116° Southeast 487 560 16,300 -2,850 Descending Jacksonville Center
Thu 12:51:19 PM 33.1864 -80.7853 115° Southeast 471 542 13,700 -2,700 Descending Jacksonville Center
Thu 12:52:19 PM 33.1342 -80.6600 116° Southeast 441 507 10,900 -1,750 Descending Jacksonville Center
Thu 12:53:19 PM 33.0883 -80.5422 115° Southeast 411 473 10,200 -1,050 Descending Jacksonville Center
Thu 12:54:19 PM 33.0489 -80.4417 115° Southeast 367 422 8,800 -1,500 Descending Jacksonville Center
Thu 12:55:19 PM 33.0028 -80.3364 118° Southeast 327 376 7,200 -1,550 Descending Jacksonville Center
Thu 12:56:19 PM 32.9553 -80.2536 124° Southeast 314 361 5,700 -1,100 Descending Jacksonville Center
Thu 12:57:19 PM 32.8933 -80.1886 139° Southeast 303 349 5,000 -750 Descending Jacksonville Center
Thu 12:58:19 PM 32.8358 -80.1311 140° Southeast 288 331 4,200 -1,000 Descending Jacksonville Center
Thu 12:59:19 PM 32.7944 -80.0606 125° Southeast 268 308 3,000 -1,200 Descending Jacksonville Center

Login

Don't have an account? Register now (free) for customized features, flight alerts, and more!